Terminal Aerodrome Forecast
Issued by NWS

Home | Current Version | Previous Version | Text Only | Print | Product List | Glossary On
Versions: 1 2 3 4 5 6 7 8 9 10 11 12 13 14 15 16 17
418
FTUS45 KRIW 242234 AAB
TAFCPR
TAF AMD
KCPR 242234Z 2423/2518 06012G18KT P6SM SCT060 SCT100
     FM250200 04015G25KT P6SM SCT050 BKN080
     FM250600 05012KT P6SM BKN025
     FM251200 05010G20KT P6SM -SHRA BKN040=

USA.gov is the U.S. government's official web portal to all federal, state and local government web resources and services.